sensor_id;sensor_type;location;lat;lon;timestamp;P1;durP1;ratioP1;P2;durP2;ratioP2
56122;SDS011;42426;46.104;19.656;2023-12-29T00:02:24;57.75;;;34.65;;
56122;SDS011;42426;46.104;19.656;2023-12-29T00:04:50;60.58;;;35.47;;
56122;SDS011;42426;46.104;19.656;2023-12-29T00:07:17;54.35;;;34.08;;
56122;SDS011;42426;46.104;19.656;2023-12-29T00:09:42;52.88;;;33.50;;
56122;SDS011;42426;46.104;19.656;2023-12-29T00:12:08;51.53;;;32.78;;
56122;SDS011;42426;46.104;19.656;2023-12-29T00:14:38;47.28;;;30.85;;
56122;SDS011;42426;46.104;19.656;2023-12-29T00:17:04;54.65;;;32.05;;
56122;SDS011;42426;46.104;19.656;2023-12-29T00:19:31;47.25;;;32.35;;
56122;SDS011;42426;46.104;19.656;2023-12-29T00:21:56;52.05;;;31.17;;
56122;SDS011;42426;46.104;19.656;2023-12-29T00:24:24;50.97;;;30.08;;
56122;SDS011;42426;46.104;19.656;2023-12-29T00:26:51;54.88;;;32.15;;
56122;SDS011;42426;46.104;19.656;2023-12-29T00:29:17;49.55;;;33.83;;
56122;SDS011;42426;46.104;19.656;2023-12-29T00:31:42;51.28;;;30.35;;
56122;SDS011;42426;46.104;19.656;2023-12-29T00:34:08;49.35;;;31.83;;
56122;SDS011;42426;46.104;19.656;2023-12-29T00:36:34;50.60;;;31.85;;
56122;SDS011;42426;46.104;19.656;2023-12-29T00:39:00;55.10;;;31.65;;
56122;SDS011;42426;46.104;19.656;2023-12-29T00:41:26;52.42;;;31.33;;
56122;SDS011;42426;46.104;19.656;2023-12-29T00:43:51;51.45;;;31.23;;
56122;SDS011;42426;46.104;19.656;2023-12-29T00:46:17;56.10;;;34.28;;
56122;SDS011;42426;46.104;19.656;2023-12-29T00:48:43;54.08;;;33.35;;
56122;SDS011;42426;46.104;19.656;2023-12-29T00:51:09;53.72;;;32.05;;
56122;SDS011;42426;46.104;19.656;2023-12-29T00:53:35;56.55;;;34.38;;
56122;SDS011;42426;46.104;19.656;2023-12-29T00:56:00;54.50;;;32.60;;
56122;SDS011;42426;46.104;19.656;2023-12-29T00:58:27;48.13;;;31.02;;
56122;SDS011;42426;46.104;19.656;2023-12-29T01:00:54;46.83;;;31.80;;
56122;SDS011;42426;46.104;19.656;2023-12-29T01:03:20;48.45;;;31.00;;
56122;SDS011;42426;46.104;19.656;2023-12-29T01:05:47;47.42;;;29.63;;
56122;SDS011;42426;46.104;19.656;2023-12-29T01:08:13;54.58;;;32.72;;
56122;SDS011;42426;46.104;19.656;2023-12-29T01:10:39;50.30;;;31.60;;
56122;SDS011;42426;46.104;19.656;2023-12-29T01:13:05;54.42;;;30.77;;
56122;SDS011;42426;46.104;19.656;2023-12-29T01:15:31;48.45;;;30.65;;
56122;SDS011;42426;46.104;19.656;2023-12-29T01:17:57;43.10;;;28.63;;
56122;SDS011;42426;46.104;19.656;2023-12-29T01:20:23;47.85;;;30.42;;
56122;SDS011;42426;46.104;19.656;2023-12-29T01:22:49;45.53;;;29.35;;
56122;SDS011;42426;46.104;19.656;2023-12-29T01:25:16;46.65;;;28.80;;
56122;SDS011;42426;46.104;19.656;2023-12-29T01:27:42;51.22;;;29.15;;
56122;SDS011;42426;46.104;19.656;2023-12-29T01:30:08;47.40;;;30.67;;
56122;SDS011;42426;46.104;19.656;2023-12-29T01:32:35;46.83;;;29.65;;
56122;SDS011;42426;46.104;19.656;2023-12-29T01:35:01;44.25;;;29.70;;
56122;SDS011;42426;46.104;19.656;2023-12-29T01:37:28;46.53;;;29.17;;
56122;SDS011;42426;46.104;19.656;2023-12-29T01:39:54;45.78;;;29.25;;
56122;SDS011;42426;46.104;19.656;2023-12-29T01:42:20;41.95;;;25.73;;
56122;SDS011;42426;46.104;19.656;2023-12-29T01:44:46;43.50;;;27.05;;
56122;SDS011;42426;46.104;19.656;2023-12-29T01:47:19;44.58;;;26.85;;
56122;SDS011;42426;46.104;19.656;2023-12-29T01:49:45;45.03;;;25.02;;
56122;SDS011;42426;46.104;19.656;2023-12-29T01:52:12;44.28;;;25.42;;
56122;SDS011;42426;46.104;19.656;2023-12-29T01:54:40;42.75;;;27.63;;
56122;SDS011;42426;46.104;19.656;2023-12-29T01:57:08;39.08;;;26.75;;
56122;SDS011;42426;46.104;19.656;2023-12-29T01:59:34;41.33;;;25.27;;
56122;SDS011;42426;46.104;19.656;2023-12-29T02:02:01;42.42;;;26.10;;
56122;SDS011;42426;46.104;19.656;2023-12-29T02:04:28;39.60;;;26.73;;
56122;SDS011;42426;46.104;19.656;2023-12-29T02:06:54;41.97;;;27.48;;
56122;SDS011;42426;46.104;19.656;2023-12-29T02:09:21;38.53;;;25.60;;
56122;SDS011;42426;46.104;19.656;2023-12-29T02:11:48;45.85;;;28.30;;
56122;SDS011;42426;46.104;19.656;2023-12-29T02:14:15;43.35;;;25.65;;
56122;SDS011;42426;46.104;19.656;2023-12-29T02:21:53;45.20;;;26.65;;
56122;SDS011;42426;46.104;19.656;2023-12-29T02:24:19;42.90;;;25.73;;
56122;SDS011;42426;46.104;19.656;2023-12-29T02:26:46;44.28;;;26.65;;
56122;SDS011;42426;46.104;19.656;2023-12-29T02:29:14;47.20;;;28.00;;
56122;SDS011;42426;46.104;19.656;2023-12-29T02:31:41;43.28;;;27.00;;
56122;SDS011;42426;46.104;19.656;2023-12-29T02:34:09;48.88;;;28.83;;
56122;SDS011;42426;46.104;19.656;2023-12-29T02:36:37;41.80;;;25.20;;
56122;SDS011;42426;46.104;19.656;2023-12-29T02:39:08;43.50;;;26.25;;
56122;SDS011;42426;46.104;19.656;2023-12-29T02:41:35;43.10;;;28.25;;
56122;SDS011;42426;46.104;19.656;2023-12-29T02:44:01;48.70;;;30.35;;
56122;SDS011;42426;46.104;19.656;2023-12-29T02:46:28;47.80;;;31.05;;
56122;SDS011;42426;46.104;19.656;2023-12-29T02:48:54;48.33;;;28.15;;
56122;SDS011;42426;46.104;19.656;2023-12-29T02:51:20;55.42;;;30.30;;
56122;SDS011;42426;46.104;19.656;2023-12-29T02:53:46;53.97;;;29.25;;
56122;SDS011;42426;46.104;19.656;2023-12-29T02:56:14;47.97;;;28.50;;
56122;SDS011;42426;46.104;19.656;2023-12-29T02:58:40;45.08;;;27.83;;
56122;SDS011;42426;46.104;19.656;2023-12-29T03:01:06;46.85;;;27.92;;
56122;SDS011;42426;46.104;19.656;2023-12-29T03:03:32;49.13;;;27.48;;
56122;SDS011;42426;46.104;19.656;2023-12-29T03:05:58;46.20;;;27.73;;
56122;SDS011;42426;46.104;19.656;2023-12-29T03:08:24;45.30;;;26.75;;
56122;SDS011;42426;46.104;19.656;2023-12-29T03:10:50;46.85;;;29.83;;
56122;SDS011;42426;46.104;19.656;2023-12-29T03:13:16;49.10;;;28.42;;
56122;SDS011;42426;46.104;19.656;2023-12-29T03:15:42;46.03;;;28.00;;
56122;SDS011;42426;46.104;19.656;2023-12-29T03:18:08;43.95;;;27.38;;
56122;SDS011;42426;46.104;19.656;2023-12-29T03:20:34;47.63;;;27.83;;
56122;SDS011;42426;46.104;19.656;2023-12-29T03:23:00;41.78;;;26.08;;
56122;SDS011;42426;46.104;19.656;2023-12-29T03:25:27;46.35;;;26.63;;
56122;SDS011;42426;46.104;19.656;2023-12-29T03:27:53;44.47;;;27.45;;
56122;SDS011;42426;46.104;19.656;2023-12-29T03:30:19;45.72;;;27.70;;
56122;SDS011;42426;46.104;19.656;2023-12-29T03:32:45;42.10;;;27.10;;
56122;SDS011;42426;46.104;19.656;2023-12-29T03:35:11;46.72;;;28.02;;
56122;SDS011;42426;46.104;19.656;2023-12-29T03:37:37;51.90;;;29.52;;
56122;SDS011;42426;46.104;19.656;2023-12-29T03:40:03;67.63;;;35.47;;
56122;SDS011;42426;46.104;19.656;2023-12-29T03:42:30;73.07;;;38.45;;
56122;SDS011;42426;46.104;19.656;2023-12-29T03:44:56;67.38;;;37.00;;
56122;SDS011;42426;46.104;19.656;2023-12-29T03:47:23;63.63;;;36.10;;
56122;SDS011;42426;46.104;19.656;2023-12-29T03:49:49;64.95;;;36.00;;
56122;SDS011;42426;46.104;19.656;2023-12-29T03:52:15;59.83;;;35.42;;
56122;SDS011;42426;46.104;19.656;2023-12-29T03:54:41;66.95;;;36.90;;
56122;SDS011;42426;46.104;19.656;2023-12-29T03:57:09;69.53;;;38.30;;
56122;SDS011;42426;46.104;19.656;2023-12-29T03:59:36;75.30;;;39.15;;
56122;SDS011;42426;46.104;19.656;2023-12-29T04:02:06;75.18;;;39.70;;
56122;SDS011;42426;46.104;19.656;2023-12-29T04:04:32;63.60;;;38.22;;
56122;SDS011;42426;46.104;19.656;2023-12-29T04:06:59;63.10;;;35.13;;
56122;SDS011;42426;46.104;19.656;2023-12-29T04:09:25;59.72;;;36.63;;
56122;SDS011;42426;46.104;19.656;2023-12-29T04:11:51;58.92;;;34.03;;
56122;SDS011;42426;46.104;19.656;2023-12-29T04:14:17;53.80;;;33.65;;
56122;SDS011;42426;46.104;19.656;2023-12-29T04:16:43;54.10;;;34.50;;
56122;SDS011;42426;46.104;19.656;2023-12-29T04:19:09;53.85;;;32.50;;
56122;SDS011;42426;46.104;19.656;2023-12-29T04:21:35;55.83;;;34.33;;
56122;SDS011;42426;46.104;19.656;2023-12-29T04:24:01;51.50;;;31.15;;
56122;SDS011;42426;46.104;19.656;2023-12-29T04:26:27;48.30;;;30.42;;
56122;SDS011;42426;46.104;19.656;2023-12-29T04:28:54;48.67;;;29.20;;
56122;SDS011;42426;46.104;19.656;2023-12-29T04:31:20;46.25;;;28.38;;
56122;SDS011;42426;46.104;19.656;2023-12-29T04:33:46;47.58;;;29.08;;
56122;SDS011;42426;46.104;19.656;2023-12-29T04:36:13;47.33;;;27.17;;
56122;SDS011;42426;46.104;19.656;2023-12-29T04:38:39;43.83;;;27.20;;
56122;SDS011;42426;46.104;19.656;2023-12-29T04:41:05;43.78;;;29.15;;
56122;SDS011;42426;46.104;19.656;2023-12-29T04:43:31;46.30;;;28.30;;
56122;SDS011;42426;46.104;19.656;2023-12-29T04:45:57;55.08;;;31.40;;
56122;SDS011;42426;46.104;19.656;2023-12-29T04:48:22;48.65;;;31.85;;
56122;SDS011;42426;46.104;19.656;2023-12-29T04:50:48;47.05;;;29.88;;
56122;SDS011;42426;46.104;19.656;2023-12-29T04:53:14;46.63;;;29.90;;
56122;SDS011;42426;46.104;19.656;2023-12-29T04:55:40;47.75;;;29.52;;
56122;SDS011;42426;46.104;19.656;2023-12-29T04:58:05;51.42;;;31.05;;
56122;SDS011;42426;46.104;19.656;2023-12-29T05:00:31;52.33;;;31.33;;
56122;SDS011;42426;46.104;19.656;2023-12-29T05:02:57;52.00;;;31.33;;
56122;SDS011;42426;46.104;19.656;2023-12-29T05:05:23;48.20;;;29.88;;
56122;SDS011;42426;46.104;19.656;2023-12-29T05:07:49;47.90;;;29.25;;
56122;SDS011;42426;46.104;19.656;2023-12-29T05:10:15;51.85;;;32.33;;
56122;SDS011;42426;46.104;19.656;2023-12-29T05:12:40;46.28;;;28.75;;
56122;SDS011;42426;46.104;19.656;2023-12-29T05:15:06;45.03;;;31.00;;
56122;SDS011;42426;46.104;19.656;2023-12-29T05:17:32;47.15;;;30.25;;
56122;SDS011;42426;46.104;19.656;2023-12-29T05:19:58;46.67;;;29.33;;
56122;SDS011;42426;46.104;19.656;2023-12-29T05:22:23;47.30;;;31.20;;
56122;SDS011;42426;46.104;19.656;2023-12-29T05:24:49;47.20;;;28.13;;
56122;SDS011;42426;46.104;19.656;2023-12-29T05:27:15;49.55;;;29.95;;
56122;SDS011;42426;46.104;19.656;2023-12-29T05:29:41;50.38;;;31.00;;
56122;SDS011;42426;46.104;19.656;2023-12-29T05:32:07;43.80;;;28.98;;
56122;SDS011;42426;46.104;19.656;2023-12-29T05:34:33;49.15;;;29.55;;
56122;SDS011;42426;46.104;19.656;2023-12-29T05:36:59;49.90;;;31.02;;
56122;SDS011;42426;46.104;19.656;2023-12-29T05:39:25;49.75;;;30.92;;
56122;SDS011;42426;46.104;19.656;2023-12-29T05:41:51;51.78;;;29.23;;
56122;SDS011;42426;46.104;19.656;2023-12-29T05:44:17;46.58;;;29.77;;
56122;SDS011;42426;46.104;19.656;2023-12-29T05:46:45;47.92;;;29.65;;
56122;SDS011;42426;46.104;19.656;2023-12-29T05:49:12;42.00;;;27.63;;
56122;SDS011;42426;46.104;19.656;2023-12-29T05:51:38;44.72;;;29.88;;
56122;SDS011;42426;46.104;19.656;2023-12-29T05:54:04;59.42;;;34.85;;
56122;SDS011;42426;46.104;19.656;2023-12-29T05:56:30;62.25;;;36.97;;
56122;SDS011;42426;46.104;19.656;2023-12-29T05:58:56;61.25;;;38.92;;
56122;SDS011;42426;46.104;19.656;2023-12-29T06:01:22;66.45;;;37.63;;
56122;SDS011;42426;46.104;19.656;2023-12-29T06:03:48;67.00;;;40.13;;
56122;SDS011;42426;46.104;19.656;2023-12-29T06:06:14;70.07;;;39.15;;
56122;SDS011;42426;46.104;19.656;2023-12-29T06:08:40;62.35;;;38.42;;
56122;SDS011;42426;46.104;19.656;2023-12-29T06:11:06;65.50;;;40.63;;
56122;SDS011;42426;46.104;19.656;2023-12-29T06:13:33;67.60;;;39.58;;
56122;SDS011;42426;46.104;19.656;2023-12-29T06:15:59;64.90;;;39.22;;
56122;SDS011;42426;46.104;19.656;2023-12-29T06:18:25;65.30;;;37.33;;
56122;SDS011;42426;46.104;19.656;2023-12-29T06:20:51;61.50;;;37.53;;
56122;SDS011;42426;46.104;19.656;2023-12-29T06:23:17;59.60;;;36.70;;
56122;SDS011;42426;46.104;19.656;2023-12-29T06:25:43;61.97;;;36.35;;
56122;SDS011;42426;46.104;19.656;2023-12-29T06:28:09;64.57;;;37.63;;
56122;SDS011;42426;46.104;19.656;2023-12-29T06:30:35;65.00;;;39.33;;
56122;SDS011;42426;46.104;19.656;2023-12-29T06:33:02;55.33;;;36.80;;
56122;SDS011;42426;46.104;19.656;2023-12-29T06:35:28;59.67;;;38.88;;
56122;SDS011;42426;46.104;19.656;2023-12-29T06:37:57;65.25;;;38.60;;
56122;SDS011;42426;46.104;19.656;2023-12-29T06:40:23;62.20;;;39.97;;
56122;SDS011;42426;46.104;19.656;2023-12-29T06:42:49;67.15;;;41.05;;
56122;SDS011;42426;46.104;19.656;2023-12-29T06:45:15;62.47;;;37.70;;
56122;SDS011;42426;46.104;19.656;2023-12-29T06:47:41;62.42;;;38.70;;
56122;SDS011;42426;46.104;19.656;2023-12-29T06:50:07;64.18;;;38.92;;
56122;SDS011;42426;46.104;19.656;2023-12-29T06:52:37;70.50;;;41.42;;
56122;SDS011;42426;46.104;19.656;2023-12-29T06:55:04;67.30;;;41.92;;
56122;SDS011;42426;46.104;19.656;2023-12-29T06:57:30;72.13;;;43.67;;
56122;SDS011;42426;46.104;19.656;2023-12-29T06:59:56;65.75;;;42.53;;
56122;SDS011;42426;46.104;19.656;2023-12-29T07:02:22;71.93;;;43.17;;
56122;SDS011;42426;46.104;19.656;2023-12-29T07:04:48;72.38;;;43.65;;
56122;SDS011;42426;46.104;19.656;2023-12-29T07:07:14;83.93;;;47.63;;
56122;SDS011;42426;46.104;19.656;2023-12-29T07:09:40;92.00;;;52.75;;
56122;SDS011;42426;46.104;19.656;2023-12-29T07:12:07;91.75;;;55.28;;
56122;SDS011;42426;46.104;19.656;2023-12-29T07:14:33;106.63;;;60.17;;
56122;SDS011;42426;46.104;19.656;2023-12-29T07:17:01;108.90;;;58.70;;
56122;SDS011;42426;46.104;19.656;2023-12-29T07:19:27;112.05;;;65.00;;
56122;SDS011;42426;46.104;19.656;2023-12-29T07:21:59;111.22;;;63.42;;
56122;SDS011;42426;46.104;19.656;2023-12-29T07:24:25;109.65;;;62.15;;
56122;SDS011;42426;46.104;19.656;2023-12-29T07:26:51;104.45;;;61.53;;
56122;SDS011;42426;46.104;19.656;2023-12-29T07:29:17;109.47;;;62.90;;
56122;SDS011;42426;46.104;19.656;2023-12-29T07:31:44;109.70;;;64.15;;
56122;SDS011;42426;46.104;19.656;2023-12-29T07:34:10;109.13;;;64.60;;
56122;SDS011;42426;46.104;19.656;2023-12-29T07:36:40;114.70;;;67.05;;
56122;SDS011;42426;46.104;19.656;2023-12-29T07:39:06;111.85;;;69.40;;
56122;SDS011;42426;46.104;19.656;2023-12-29T07:41:32;117.07;;;70.97;;
56122;SDS011;42426;46.104;19.656;2023-12-29T07:43:58;124.90;;;74.70;;
56122;SDS011;42426;46.104;19.656;2023-12-29T07:46:25;137.73;;;84.03;;
56122;SDS011;42426;46.104;19.656;2023-12-29T07:48:54;124.30;;;76.30;;
56122;SDS011;42426;46.104;19.656;2023-12-29T07:51:20;116.95;;;69.05;;
56122;SDS011;42426;46.104;19.656;2023-12-29T07:53:46;117.60;;;68.20;;
56122;SDS011;42426;46.104;19.656;2023-12-29T07:56:13;116.97;;;70.10;;
56122;SDS011;42426;46.104;19.656;2023-12-29T07:58:39;111.15;;;67.70;;
56122;SDS011;42426;46.104;19.656;2023-12-29T08:01:05;96.55;;;60.25;;
56122;SDS011;42426;46.104;19.656;2023-12-29T08:03:31;100.43;;;63.30;;
56122;SDS011;42426;46.104;19.656;2023-12-29T08:05:57;100.35;;;61.63;;
56122;SDS011;42426;46.104;19.656;2023-12-29T08:08:23;87.47;;;52.72;;
56122;SDS011;42426;46.104;19.656;2023-12-29T08:10:49;102.18;;;57.17;;
56122;SDS011;42426;46.104;19.656;2023-12-29T08:13:17;97.68;;;56.42;;
56122;SDS011;42426;46.104;19.656;2023-12-29T08:15:43;89.45;;;53.83;;
56122;SDS011;42426;46.104;19.656;2023-12-29T08:18:10;85.93;;;52.85;;
56122;SDS011;42426;46.104;19.656;2023-12-29T08:20:36;94.78;;;53.60;;
56122;SDS011;42426;46.104;19.656;2023-12-29T08:23:02;90.32;;;52.40;;
56122;SDS011;42426;46.104;19.656;2023-12-29T08:25:29;94.80;;;55.95;;
56122;SDS011;42426;46.104;19.656;2023-12-29T08:27:57;85.50;;;51.05;;
56122;SDS011;42426;46.104;19.656;2023-12-29T08:30:24;77.15;;;46.90;;
56122;SDS011;42426;46.104;19.656;2023-12-29T08:32:50;88.70;;;48.17;;
56122;SDS011;42426;46.104;19.656;2023-12-29T08:35:16;73.93;;;45.45;;
56122;SDS011;42426;46.104;19.656;2023-12-29T08:37:42;72.82;;;42.63;;
56122;SDS011;42426;46.104;19.656;2023-12-29T08:40:08;63.10;;;39.80;;
56122;SDS011;42426;46.104;19.656;2023-12-29T08:42:34;79.22;;;46.70;;
56122;SDS011;42426;46.104;19.656;2023-12-29T08:45:00;72.63;;;43.63;;
56122;SDS011;42426;46.104;19.656;2023-12-29T08:47:28;77.60;;;42.13;;
56122;SDS011;42426;46.104;19.656;2023-12-29T08:49:54;70.60;;;39.00;;
56122;SDS011;42426;46.104;19.656;2023-12-29T08:52:20;73.57;;;42.55;;
56122;SDS011;42426;46.104;19.656;2023-12-29T08:54:46;76.05;;;42.65;;
56122;SDS011;42426;46.104;19.656;2023-12-29T08:57:13;73.60;;;41.28;;
56122;SDS011;42426;46.104;19.656;2023-12-29T08:59:38;78.78;;;47.13;;
56122;SDS011;42426;46.104;19.656;2023-12-29T09:02:05;82.20;;;46.83;;
56122;SDS011;42426;46.104;19.656;2023-12-29T09:04:31;78.28;;;47.33;;
56122;SDS011;42426;46.104;19.656;2023-12-29T09:06:57;85.15;;;47.53;;
56122;SDS011;42426;46.104;19.656;2023-12-29T09:09:23;79.32;;;48.47;;
56122;SDS011;42426;46.104;19.656;2023-12-29T09:11:50;75.63;;;45.50;;
56122;SDS011;42426;46.104;19.656;2023-12-29T09:14:16;82.22;;;47.17;;
56122;SDS011;42426;46.104;19.656;2023-12-29T09:16:42;71.90;;;44.03;;
56122;SDS011;42426;46.104;19.656;2023-12-29T09:19:11;71.32;;;40.33;;
56122;SDS011;42426;46.104;19.656;2023-12-29T09:21:37;67.47;;;41.03;;
56122;SDS011;42426;46.104;19.656;2023-12-29T09:24:03;64.35;;;41.97;;
56122;SDS011;42426;46.104;19.656;2023-12-29T09:26:29;64.78;;;39.03;;
56122;SDS011;42426;46.104;19.656;2023-12-29T09:28:55;63.75;;;38.58;;
56122;SDS011;42426;46.104;19.656;2023-12-29T09:31:21;61.08;;;36.92;;
56122;SDS011;42426;46.104;19.656;2023-12-29T09:33:48;60.03;;;37.47;;
56122;SDS011;42426;46.104;19.656;2023-12-29T09:36:14;68.75;;;41.90;;
56122;SDS011;42426;46.104;19.656;2023-12-29T09:38:40;64.53;;;41.97;;
56122;SDS011;42426;46.104;19.656;2023-12-29T09:41:09;65.50;;;41.55;;
56122;SDS011;42426;46.104;19.656;2023-12-29T09:46:41;68.95;;;40.70;;
56122;SDS011;42426;46.104;19.656;2023-12-29T09:52:11;71.43;;;41.92;;
56122;SDS011;42426;46.104;19.656;2023-12-29T09:54:38;62.80;;;38.42;;
56122;SDS011;42426;46.104;19.656;2023-12-29T09:57:05;60.42;;;37.17;;
56122;SDS011;42426;46.104;19.656;2023-12-29T09:59:32;61.40;;;37.35;;
56122;SDS011;42426;46.104;19.656;2023-12-29T10:02:03;66.43;;;38.45;;
56122;SDS011;42426;46.104;19.656;2023-12-29T10:04:29;53.13;;;34.83;;
56122;SDS011;42426;46.104;19.656;2023-12-29T10:06:56;62.25;;;37.22;;
56122;SDS011;42426;46.104;19.656;2023-12-29T10:09:31;52.42;;;33.28;;
56122;SDS011;42426;46.104;19.656;2023-12-29T10:12:05;50.97;;;32.70;;
56122;SDS011;42426;46.104;19.656;2023-12-29T10:14:41;54.03;;;31.45;;
56122;SDS011;42426;46.104;19.656;2023-12-29T10:17:30;56.83;;;34.33;;
56122;SDS011;42426;46.104;19.656;2023-12-29T10:20:52;49.28;;;30.42;;
56122;SDS011;42426;46.104;19.656;2023-12-29T10:23:06;51.90;;;33.17;;
56122;SDS011;42426;46.104;19.656;2023-12-29T10:25:38;55.08;;;34.38;;
56122;SDS011;42426;46.104;19.656;2023-12-29T10:28:08;50.85;;;32.92;;
56122;SDS011;42426;46.104;19.656;2023-12-29T10:30:35;50.20;;;31.38;;
56122;SDS011;42426;46.104;19.656;2023-12-29T10:33:02;50.35;;;32.42;;
56122;SDS011;42426;46.104;19.656;2023-12-29T10:35:30;53.15;;;34.47;;
56122;SDS011;42426;46.104;19.656;2023-12-29T10:38:12;49.17;;;31.05;;
56122;SDS011;42426;46.104;19.656;2023-12-29T10:40:39;47.35;;;30.73;;
56122;SDS011;42426;46.104;19.656;2023-12-29T10:43:05;54.03;;;32.78;;
56122;SDS011;42426;46.104;19.656;2023-12-29T10:45:33;50.50;;;32.17;;
56122;SDS011;42426;46.104;19.656;2023-12-29T10:48:00;50.00;;;31.08;;
56122;SDS011;42426;46.104;19.656;2023-12-29T10:50:26;51.55;;;31.75;;
56122;SDS011;42426;46.104;19.656;2023-12-29T10:53:13;48.83;;;31.05;;
56122;SDS011;42426;46.104;19.656;2023-12-29T10:55:42;51.30;;;32.20;;
56122;SDS011;42426;46.104;19.656;2023-12-29T10:58:08;45.67;;;30.90;;
56122;SDS011;42426;46.104;19.656;2023-12-29T11:00:36;51.03;;;33.08;;
56122;SDS011;42426;46.104;19.656;2023-12-29T11:03:01;52.95;;;33.17;;
56122;SDS011;42426;46.104;19.656;2023-12-29T11:05:29;59.83;;;35.85;;
56122;SDS011;42426;46.104;19.656;2023-12-29T11:07:55;51.33;;;33.00;;
56122;SDS011;42426;46.104;19.656;2023-12-29T11:10:21;50.88;;;33.78;;
56122;SDS011;42426;46.104;19.656;2023-12-29T11:12:47;50.40;;;32.92;;
56122;SDS011;42426;46.104;19.656;2023-12-29T11:15:14;56.33;;;33.53;;
56122;SDS011;42426;46.104;19.656;2023-12-29T11:17:41;52.15;;;33.10;;
56122;SDS011;42426;46.104;19.656;2023-12-29T11:20:14;53.22;;;30.88;;
56122;SDS011;42426;46.104;19.656;2023-12-29T11:22:42;50.47;;;33.03;;
56122;SDS011;42426;46.104;19.656;2023-12-29T11:25:09;51.20;;;30.02;;
56122;SDS011;42426;46.104;19.656;2023-12-29T11:27:36;54.33;;;33.80;;
56122;SDS011;42426;46.104;19.656;2023-12-29T11:30:03;48.90;;;31.13;;
56122;SDS011;42426;46.104;19.656;2023-12-29T11:35:02;43.78;;;28.17;;
56122;SDS011;42426;46.104;19.656;2023-12-29T11:40:10;42.38;;;28.02;;
56122;SDS011;42426;46.104;19.656;2023-12-29T11:42:45;44.78;;;30.90;;
56122;SDS011;42426;46.104;19.656;2023-12-29T11:45:24;47.08;;;26.85;;
56122;SDS011;42426;46.104;19.656;2023-12-29T11:48:00;40.75;;;25.52;;
56122;SDS011;42426;46.104;19.656;2023-12-29T11:50:28;41.85;;;26.90;;
56122;SDS011;42426;46.104;19.656;2023-12-29T11:52:56;40.90;;;25.73;;
56122;SDS011;42426;46.104;19.656;2023-12-29T11:55:27;42.65;;;26.85;;
56122;SDS011;42426;46.104;19.656;2023-12-29T11:58:04;39.75;;;25.90;;
56122;SDS011;42426;46.104;19.656;2023-12-29T12:00:48;37.25;;;25.90;;
56122;SDS011;42426;46.104;19.656;2023-12-29T12:03:18;39.05;;;25.98;;
56122;SDS011;42426;46.104;19.656;2023-12-29T12:05:51;39.63;;;28.27;;
56122;SDS011;42426;46.104;19.656;2023-12-29T12:13:53;44.20;;;28.35;;
56122;SDS011;42426;46.104;19.656;2023-12-29T12:19:04;43.10;;;26.23;;
56122;SDS011;42426;46.104;19.656;2023-12-29T12:21:31;35.03;;;24.40;;
56122;SDS011;42426;46.104;19.656;2023-12-29T12:23:57;37.90;;;25.13;;
56122;SDS011;42426;46.104;19.656;2023-12-29T12:26:24;42.00;;;25.35;;
56122;SDS011;42426;46.104;19.656;2023-12-29T12:28:52;44.40;;;29.23;;
56122;SDS011;42426;46.104;19.656;2023-12-29T12:31:18;45.08;;;29.45;;
56122;SDS011;42426;46.104;19.656;2023-12-29T12:33:53;38.00;;;24.95;;
56122;SDS011;42426;46.104;19.656;2023-12-29T12:36:20;35.08;;;23.17;;
56122;SDS011;42426;46.104;19.656;2023-12-29T12:38:52;36.20;;;23.38;;
56122;SDS011;42426;46.104;19.656;2023-12-29T12:41:20;32.85;;;22.88;;
56122;SDS011;42426;46.104;19.656;2023-12-29T12:43:49;36.35;;;22.83;;
56122;SDS011;42426;46.104;19.656;2023-12-29T12:46:16;33.42;;;22.67;;
56122;SDS011;42426;46.104;19.656;2023-12-29T12:48:43;34.17;;;21.50;;
56122;SDS011;42426;46.104;19.656;2023-12-29T12:51:11;44.47;;;23.35;;
56122;SDS011;42426;46.104;19.656;2023-12-29T12:53:41;32.15;;;22.05;;
56122;SDS011;42426;46.104;19.656;2023-12-29T12:56:09;35.45;;;23.38;;
56122;SDS011;42426;46.104;19.656;2023-12-29T12:58:36;34.08;;;23.33;;
56122;SDS011;42426;46.104;19.656;2023-12-29T13:01:02;33.50;;;24.48;;
56122;SDS011;42426;46.104;19.656;2023-12-29T13:03:29;42.78;;;26.13;;
56122;SDS011;42426;46.104;19.656;2023-12-29T13:05:57;36.95;;;25.55;;
56122;SDS011;42426;46.104;19.656;2023-12-29T13:08:24;39.03;;;24.52;;
56122;SDS011;42426;46.104;19.656;2023-12-29T13:10:51;37.15;;;22.48;;
56122;SDS011;42426;46.104;19.656;2023-12-29T13:13:19;42.35;;;24.10;;
56122;SDS011;42426;46.104;19.656;2023-12-29T13:15:49;36.25;;;23.83;;
56122;SDS011;42426;46.104;19.656;2023-12-29T13:18:16;39.17;;;24.73;;
56122;SDS011;42426;46.104;19.656;2023-12-29T13:20:48;37.70;;;23.70;;
56122;SDS011;42426;46.104;19.656;2023-12-29T13:23:14;37.17;;;23.80;;
56122;SDS011;42426;46.104;19.656;2023-12-29T13:25:42;40.40;;;23.30;;
56122;SDS011;42426;46.104;19.656;2023-12-29T13:28:09;34.75;;;23.58;;
56122;SDS011;42426;46.104;19.656;2023-12-29T13:30:36;44.42;;;24.05;;
56122;SDS011;42426;46.104;19.656;2023-12-29T13:33:25;33.35;;;23.67;;
56122;SDS011;42426;46.104;19.656;2023-12-29T13:35:55;35.47;;;22.08;;
56122;SDS011;42426;46.104;19.656;2023-12-29T13:38:33;30.73;;;21.67;;
56122;SDS011;42426;46.104;19.656;2023-12-29T13:41:06;40.72;;;26.20;;
56122;SDS011;42426;46.104;19.656;2023-12-29T13:43:35;33.88;;;23.65;;
56122;SDS011;42426;46.104;19.656;2023-12-29T13:46:03;41.88;;;24.48;;
56122;SDS011;42426;46.104;19.656;2023-12-29T13:48:30;35.08;;;24.30;;
56122;SDS011;42426;46.104;19.656;2023-12-29T13:50:58;34.85;;;25.38;;
56122;SDS011;42426;46.104;19.656;2023-12-29T13:53:24;30.75;;;21.45;;
56122;SDS011;42426;46.104;19.656;2023-12-29T13:55:50;37.80;;;22.35;;
56122;SDS011;42426;46.104;19.656;2023-12-29T13:58:16;36.75;;;23.15;;
56122;SDS011;42426;46.104;19.656;2023-12-29T14:00:42;36.33;;;23.73;;
56122;SDS011;42426;46.104;19.656;2023-12-29T14:03:15;35.53;;;22.60;;
56122;SDS011;42426;46.104;19.656;2023-12-29T14:05:51;30.17;;;22.27;;
56122;SDS011;42426;46.104;19.656;2023-12-29T14:08:30;37.15;;;23.50;;
56122;SDS011;42426;46.104;19.656;2023-12-29T14:11:06;34.78;;;24.48;;
56122;SDS011;42426;46.104;19.656;2023-12-29T14:13:34;32.10;;;21.50;;
56122;SDS011;42426;46.104;19.656;2023-12-29T14:16:00;30.30;;;21.13;;
56122;SDS011;42426;46.104;19.656;2023-12-29T14:20:59;34.40;;;24.13;;
56122;SDS011;42426;46.104;19.656;2023-12-29T14:23:25;34.20;;;23.40;;
56122;SDS011;42426;46.104;19.656;2023-12-29T14:25:51;32.15;;;22.90;;
56122;SDS011;42426;46.104;19.656;2023-12-29T14:28:17;33.55;;;22.50;;
56122;SDS011;42426;46.104;19.656;2023-12-29T14:30:45;38.50;;;23.05;;
56122;SDS011;42426;46.104;19.656;2023-12-29T14:33:12;35.38;;;22.23;;
56122;SDS011;42426;46.104;19.656;2023-12-29T14:35:38;36.97;;;25.02;;
56122;SDS011;42426;46.104;19.656;2023-12-29T14:38:04;37.65;;;23.90;;